CMA CGM Columba — 2DBC9 — position and weather

sailwx.info

Track history (hours):
 
Tides and Currents Weather Stations Pressure Air Temp Water Temp Dewpoint Dewpoint Depression Visibility Wind Speed Wind Dir Waves Ship Positions

CMA CGM Columba

Last reported at 2016-May-27 16:25 UTC. Time now 2016-May-31 02:03 UTC.
Position N 37°40' W 127°35'.

Length 363 m; draft 11 m.

Type: Ship (hazmat cat A). MMSI: 235077448.

Date/timePositionNaut miles runAvg speedWind from/ knotsBaromVisibWave heightAir tempDewpointWater temp
2016-May-27 16:25N 37°40' W 127°35'4411.4
2016-May-27 12:33N 37°46' W 126°40'1111.4
2016-May-27 11:33N 37°48' W 126°25'1111.3
2016-May-27 10:33N 37°50' W 126°11'1211.4
2016-May-27 09:30N 37°52' W 125°56'2611.4
2016-May-27 07:12N 37°55' W 125°23'911.2
2016-May-27 06:26N 37°57' W 125°12'5210.7
2016-May-27 01:33N 38°04' W 124°07'1010.0
2016-May-27 00:33N 38°06' W 123°54'1010.1
2016-May-26 23:33N 38°07' W 123°42'10 9.7
2016-May-26 22:33N 38°09' W 123°30'9 8.7
2016-May-26 21:33N 38°07' W 123°19'9 9.4
2016-May-26 20:33N 38°00' W 123°11'10 9.8
2016-May-26 19:33N 37°55' W 123°00'10 9.8
2016-May-26 18:33N 37°50' W 122°50'9 8.7
2016-May-26 17:33N 37°45' W 122°40'1212.2
2016-May-26 16:33N 37°51' W 122°27'7 6.5
2016-May-26 15:32N 37°48' W 122°19'0 0.0
2016-May-26 14:32N 37°48' W 122°19'0 0.0
2016-May-26 13:32N 37°48' W 122°19'0 0.0
2016-May-26 12:32N 37°48' W 122°19'0 0.0
2016-May-26 11:32N 37°48' W 122°19'0 0.0
2016-May-26 10:32N 37°48' W 122°19'0 0.0
2016-May-26 09:32N 37°48' W 122°19'0 0.0
2016-May-26 08:32N 37°48' W 122°19'0 0.0
2016-May-26 07:32N 37°48' W 122°19'0 0.0
2016-May-26 06:32N 37°48' W 122°19'0 0.0
2016-May-26 05:32N 37°48' W 122°19'0 0.0
2016-May-26 04:32N 37°48' W 122°19'0 0.0
2016-May-26 03:32N 37°48' W 122°19'0 0.0
2016-May-26 02:32N 37°48' W 122°19'0 0.0
2016-May-26 01:32N 37°48' W 122°19'0 0.0
2016-May-26 00:32N 37°48' W 122°19'0 0.0
2016-May-25 23:32N 37°48' W 122°19'0 0.0
2016-May-25 22:32N 37°48' W 122°19'0 0.0
2016-May-25 21:29N 37°48' W 122°19'0 0.0
2016-May-25 20:32N 37°48' W 122°19'0 0.0
2016-May-25 19:32N 37°48' W 122°19'0 0.0
2016-May-25 18:32N 37°48' W 122°19'0 0.0
2016-May-25 17:32N 37°48' W 122°19'0 0.0
2016-May-25 16:32N 37°48' W 122°19'0 0.0
2016-May-25 15:32N 37°48' W 122°19'0 0.0
2016-May-25 14:29N 37°48' W 122°19'0 0.0
2016-May-25 13:32N 37°48' W 122°19'0 0.0
2016-May-25 12:32N 37°48' W 122°19'0 0.0
2016-May-25 11:32N 37°48' W 122°19'0 0.0
2016-May-25 10:32N 37°48' W 122°19'0 0.0
2016-May-25 09:32N 37°48' W 122°19'0 0.0
2016-May-25 08:32N 37°48' W 122°19'0 0.0
2016-May-25 07:32N 37°48' W 122°19'0 0.0
2016-May-25 06:32N 37°48' W 122°19'0 0.0
2016-May-25 05:32N 37°48' W 122°19'0 0.0
2016-May-25 04:32N 37°48' W 122°19'0 0.0
2016-May-25 03:33N 37°48' W 122°19'1 0.8
2016-May-25 02:33N 37°48' W 122°18'5 5.1
2016-May-25 01:33N 37°49' W 122°24'9 9.3
2016-May-25 00:33N 37°47' W 122°35'9 8.9
2016-May-24 23:33N 37°39' W 122°40'1010.0
2016-May-24 22:33N 37°29' W 122°40'11 9.9
2016-May-24 21:29N 37°18' W 122°39'3 3.1
2016-May-24 20:29N 37°21' W 122°37'11 5.0
2016-May-24 18:21N 37°10' W 122°39'17 9.4
2016-May-24 16:33N 36°54' W 122°31'9 9.4
2016-May-24 15:33N 36°46' W 122°27'10 9.6
2016-May-24 14:33N 36°37' W 122°22'1010.4
2016-May-24 13:33N 36°27' W 122°17'1110.7
2016-May-24 12:33N 36°18' W 122°12'1111.4
2016-May-24 11:33N 36°08' W 122°05'1111.3
2016-May-24 10:33N 35°58' W 121°58'1110.9
2016-May-24 09:33N 35°48' W 121°51'1111.2
2016-May-24 08:33N 35°39' W 121°44'1210.8
2016-May-24 07:29N 35°29' W 121°37'18810.5
2016-May-23 13:31N 33°42' W 118°29'1110.4
2016-May-23 12:28N 33°38' W 118°16'7 0.5
2016-May-22 22:19N 33°44' W 118°12'0 0.0
2016-May-22 21:17N 33°44' W 118°12'0 0.0
2016-May-20 17:33N 33°44' W 118°12'0 0.0
2016-May-20 16:32N 33°44' W 118°12'0 0.0
2016-May-20 15:32N 33°44' W 118°12'0 0.0
2016-May-20 14:32N 33°44' W 118°12'0 0.0
2016-May-20 13:32N 33°44' W 118°12'0 0.0
2016-May-20 12:29N 33°44' W 118°12'0 0.0
2016-May-20 11:32N 33°44' W 118°12'0 0.0
2016-May-20 10:32N 33°44' W 118°12'0 0.0
2016-May-20 09:32N 33°44' W 118°12'0 0.0
2016-May-20 08:32N 33°44' W 118°12'0 0.0
2016-May-20 07:32N 33°44' W 118°12'0 0.0
2016-May-20 06:32N 33°44' W 118°12'0 0.0
2016-May-20 04:32N 33°44' W 118°12'0 0.0
2016-May-20 03:29N 33°44' W 118°12'0 0.0
2016-May-20 02:29N 33°44' W 118°12'0 0.0
2016-May-20 01:32N 33°44' W 118°12'0 0.0
2016-May-20 00:32N 33°44' W 118°12'0 0.0
2016-May-19 23:32N 33°44' W 118°12'0 0.0
2016-May-19 22:32N 33°44' W 118°12'0 0.0
2016-May-19 21:32N 33°44' W 118°12'0 0.0
2016-May-19 20:32N 33°44' W 118°12'0 0.0
2016-May-19 19:32N 33°44' W 118°12'0 0.0
2016-May-19 18:32N 33°44' W 118°12'0 0.0
2016-May-19 17:32N 33°44' W 118°12'0 0.0
2016-May-19 16:32N 33°44' W 118°12'0 0.0
2016-May-19 15:32N 33°44' W 118°12'0 0.0
2016-May-19 14:32N 33°44' W 118°12'0 0.0
2016-May-19 13:32N 33°44' W 118°12'0 0.0
2016-May-19 12:23N 33°44' W 118°12'1 0.7
2016-May-19 11:31N 33°44' W 118°11'7 6.8
2016-May-19 10:33N 33°38' W 118°12'2010.2
2016-May-19 08:32N 33°43' W 118°36'13011.4
2016-May-18 21:06N 34°21' W 121°06'1014.7
2016-May-18 20:24N 34°19' W 121°18'2714.8
2016-May-18 18:34N 34°11' W 121°50'1614.9
2016-May-18 17:28N 34°07' W 122°09'2014.8
2016-May-18 16:09N 34°02' W 122°32'914.6
2016-May-18 15:33N 33°60' W 122°42'1514.7
2016-May-18 14:33N 33°56' W 122°59'1514.8
2016-May-18 13:34N 33°52' W 123°16'1514.8
2016-May-18 12:33N 33°49' W 123°33'8513.8
2016-May-18 06:23N 33°59' W 125°15'1415.3
2016-May-18 05:28N 34°07' W 125°30'5217.8
2016-May-18 02:34N 34°33' W 126°23'  
Track history (hours):
 
Tides and Currents Weather Stations Pressure Air Temp Water Temp Dewpoint Dewpoint Depression Visibility Wind Speed Wind Dir Waves Ship Positions

CMA CGM Columba

Last reported at 2016-May-27 16:25 UTC. Time now 2016-May-31 02:03 UTC.
Position N 37°40' W 127°35'.

Length 363 m; draft 11 m.

Type: Ship (hazmat cat A). MMSI: 235077448.

Date/timePositionNaut miles runAvg speedWind from/ knotsBaromVisibWave heightAir tempDewpointWater temp
2016-May-27 16:25N 37°40' W 127°35'4411.4
2016-May-27 12:33N 37°46' W 126°40'1111.4
2016-May-27 11:33N 37°48' W 126°25'1111.3
2016-May-27 10:33N 37°50' W 126°11'1211.4
2016-May-27 09:30N 37°52' W 125°56'2611.4
2016-May-27 07:12N 37°55' W 125°23'911.2
2016-May-27 06:26N 37°57' W 125°12'5210.7
2016-May-27 01:33N 38°04' W 124°07'1010.0
2016-May-27 00:33N 38°06' W 123°54'1010.1
2016-May-26 23:33N 38°07' W 123°42'10 9.7
2016-May-26 22:33N 38°09' W 123°30'9 8.7
2016-May-26 21:33N 38°07' W 123°19'9 9.4
2016-May-26 20:33N 38°00' W 123°11'10 9.8
2016-May-26 19:33N 37°55' W 123°00'10 9.8
2016-May-26 18:33N 37°50' W 122°50'9 8.7
2016-May-26 17:33N 37°45' W 122°40'1212.2
2016-May-26 16:33N 37°51' W 122°27'7 6.5
2016-May-26 15:32N 37°48' W 122°19'0 0.0
2016-May-26 14:32N 37°48' W 122°19'0 0.0
2016-May-26 13:32N 37°48' W 122°19'0 0.0
2016-May-26 12:32N 37°48' W 122°19'0 0.0
2016-May-26 11:32N 37°48' W 122°19'0 0.0
2016-May-26 10:32N 37°48' W 122°19'0 0.0
2016-May-26 09:32N 37°48' W 122°19'0 0.0
2016-May-26 08:32N 37°48' W 122°19'0 0.0
2016-May-26 07:32N 37°48' W 122°19'0 0.0
2016-May-26 06:32N 37°48' W 122°19'0 0.0
2016-May-26 05:32N 37°48' W 122°19'0 0.0
2016-May-26 04:32N 37°48' W 122°19'0 0.0
2016-May-26 03:32N 37°48' W 122°19'0 0.0
2016-May-26 02:32N 37°48' W 122°19'0 0.0
2016-May-26 01:32N 37°48' W 122°19'0 0.0
2016-May-26 00:32N 37°48' W 122°19'0 0.0
2016-May-25 23:32N 37°48' W 122°19'0 0.0
2016-May-25 22:32N 37°48' W 122°19'0 0.0
2016-May-25 21:29N 37°48' W 122°19'0 0.0
2016-May-25 20:32N 37°48' W 122°19'0 0.0
2016-May-25 19:32N 37°48' W 122°19'0 0.0
2016-May-25 18:32N 37°48' W 122°19'0 0.0
2016-May-25 17:32N 37°48' W 122°19'0 0.0
2016-May-25 16:32N 37°48' W 122°19'0 0.0
2016-May-25 15:32N 37°48' W 122°19'0 0.0
2016-May-25 14:29N 37°48' W 122°19'0 0.0
2016-May-25 13:32N 37°48' W 122°19'0 0.0
2016-May-25 12:32N 37°48' W 122°19'0 0.0
2016-May-25 11:32N 37°48' W 122°19'0 0.0
2016-May-25 10:32N 37°48' W 122°19'0 0.0
2016-May-25 09:32N 37°48' W 122°19'0 0.0
2016-May-25 08:32N 37°48' W 122°19'0 0.0
2016-May-25 07:32N 37°48' W 122°19'0 0.0
2016-May-25 06:32N 37°48' W 122°19'0 0.0
2016-May-25 05:32N 37°48' W 122°19'0 0.0
2016-May-25 04:32N 37°48' W 122°19'0 0.0
2016-May-25 03:33N 37°48' W 122°19'1 0.8
2016-May-25 02:33N 37°48' W 122°18'5 5.1
2016-May-25 01:33N 37°49' W 122°24'9 9.3
2016-May-25 00:33N 37°47' W 122°35'9 8.9
2016-May-24 23:33N 37°39' W 122°40'1010.0
2016-May-24 22:33N 37°29' W 122°40'11 9.9
2016-May-24 21:29N 37°18' W 122°39'3 3.1
2016-May-24 20:29N 37°21' W 122°37'11 5.0
2016-May-24 18:21N 37°10' W 122°39'17 9.4
2016-May-24 16:33N 36°54' W 122°31'9 9.4
2016-May-24 15:33N 36°46' W 122°27'10 9.6
2016-May-24 14:33N 36°37' W 122°22'1010.4
2016-May-24 13:33N 36°27' W 122°17'1110.7
2016-May-24 12:33N 36°18' W 122°12'1111.4
2016-May-24 11:33N 36°08' W 122°05'1111.3
2016-May-24 10:33N 35°58' W 121°58'1110.9
2016-May-24 09:33N 35°48' W 121°51'1111.2
2016-May-24 08:33N 35°39' W 121°44'1210.8
2016-May-24 07:29N 35°29' W 121°37'18810.5
2016-May-23 13:31N 33°42' W 118°29'1110.4
2016-May-23 12:28N 33°38' W 118°16'7 0.5
2016-May-22 22:19N 33°44' W 118°12'0 0.0
2016-May-22 21:17N 33°44' W 118°12'0 0.0
2016-May-20 17:33N 33°44' W 118°12'0 0.0
2016-May-20 16:32N 33°44' W 118°12'0 0.0
2016-May-20 15:32N 33°44' W 118°12'0 0.0
2016-May-20 14:32N 33°44' W 118°12'0 0.0
2016-May-20 13:32N 33°44' W 118°12'0 0.0
2016-May-20 12:29N 33°44' W 118°12'0 0.0
2016-May-20 11:32N 33°44' W 118°12'0 0.0
2016-May-20 10:32N 33°44' W 118°12'0 0.0
2016-May-20 09:32N 33°44' W 118°12'0 0.0
2016-May-20 08:32N 33°44' W 118°12'0 0.0
2016-May-20 07:32N 33°44' W 118°12'0 0.0
2016-May-20 06:32N 33°44' W 118°12'0 0.0
2016-May-20 04:32N 33°44' W 118°12'0 0.0
2016-May-20 03:29N 33°44' W 118°12'0 0.0
2016-May-20 02:29N 33°44' W 118°12'0 0.0
2016-May-20 01:32N 33°44' W 118°12'0 0.0
2016-May-20 00:32N 33°44' W 118°12'0 0.0
2016-May-19 23:32N 33°44' W 118°12'0 0.0
2016-May-19 22:32N 33°44' W 118°12'0 0.0
2016-May-19 21:32N 33°44' W 118°12'0 0.0
2016-May-19 20:32N 33°44' W 118°12'0 0.0
2016-May-19 19:32N 33°44' W 118°12'0 0.0
2016-May-19 18:32N 33°44' W 118°12'0 0.0
2016-May-19 17:32N 33°44' W 118°12'0 0.0
2016-May-19 16:32N 33°44' W 118°12'0 0.0
2016-May-19 15:32N 33°44' W 118°12'0 0.0
2016-May-19 14:32N 33°44' W 118°12'0 0.0
2016-May-19 13:32N 33°44' W 118°12'0 0.0
2016-May-19 12:23N 33°44' W 118°12'1 0.7
2016-May-19 11:31N 33°44' W 118°11'7 6.8
2016-May-19 10:33N 33°38' W 118°12'2010.2
2016-May-19 08:32N 33°43' W 118°36'13011.4
2016-May-18 21:06N 34°21' W 121°06'1014.7
2016-May-18 20:24N 34°19' W 121°18'2714.8
2016-May-18 18:34N 34°11' W 121°50'1614.9
2016-May-18 17:28N 34°07' W 122°09'2014.8
2016-May-18 16:09N 34°02' W 122°32'914.6
2016-May-18 15:33N 33°60' W 122°42'1514.7
2016-May-18 14:33N 33°56' W 122°59'1514.8
2016-May-18 13:34N 33°52' W 123°16'1514.8
2016-May-18 12:33N 33°49' W 123°33'8513.8
2016-May-18 06:23N 33°59' W 125°15'1415.3
2016-May-18 05:28N 34°07' W 125°30'5217.8
2016-May-18 02:34N 34°33' W 126°23'  

Dump ship's entire track history